sensor_id;sensor_type;location;lat;lon;timestamp;temperature;humidity
19363;DHT22;9817;50.80926400;5.16316200;2023-06-22T00:00:51;22.80;99.90
19363;DHT22;9817;50.80926400;5.16316200;2023-06-22T00:03:18;22.70;99.90
19363;DHT22;9817;50.80926400;5.16316200;2023-06-22T00:05:45;22.80;99.90
19363;DHT22;9817;50.80926400;5.16316200;2023-06-22T00:08:11;22.70;99.90
19363;DHT22;9817;50.80926400;5.16316200;2023-06-22T00:10:37;22.70;99.90
19363;DHT22;9817;50.80926400;5.16316200;2023-06-22T00:13:04;22.70;99.90
19363;DHT22;9817;50.80926400;5.16316200;2023-06-22T00:15:29;22.60;99.90
19363;DHT22;9817;50.80926400;5.16316200;2023-06-22T00:17:55;22.60;99.90
19363;DHT22;9817;50.80926400;5.16316200;2023-06-22T00:20:22;22.60;99.90
19363;DHT22;9817;50.80926400;5.16316200;2023-06-22T00:22:48;22.60;99.90
19363;DHT22;9817;50.80926400;5.16316200;2023-06-22T00:25:14;22.60;99.90
19363;DHT22;9817;50.80926400;5.16316200;2023-06-22T00:27:39;22.70;99.90
19363;DHT22;9817;50.80926400;5.16316200;2023-06-22T00:30:06;22.60;99.90
19363;DHT22;9817;50.80926400;5.16316200;2023-06-22T00:32:32;22.60;99.90
19363;DHT22;9817;50.80926400;5.16316200;2023-06-22T00:34:57;22.70;99.90
19363;DHT22;9817;50.80926400;5.16316200;2023-06-22T00:37:23;22.70;99.90
19363;DHT22;9817;50.80926400;5.16316200;2023-06-22T00:39:51;22.70;99.90
19363;DHT22;9817;50.80926400;5.16316200;2023-06-22T00:42:17;22.70;99.90
19363;DHT22;9817;50.80926400;5.16316200;2023-06-22T00:44:43;22.70;99.90
19363;DHT22;9817;50.80926400;5.16316200;2023-06-22T00:47:10;22.60;99.90
19363;DHT22;9817;50.80926400;5.16316200;2023-06-22T00:49:38;22.60;99.90
19363;DHT22;9817;50.80926400;5.16316200;2023-06-22T00:52:05;22.70;99.90
19363;DHT22;9817;50.80926400;5.16316200;2023-06-22T00:54:37;22.70;99.90
19363;DHT22;9817;50.80926400;5.16316200;2023-06-22T00:57:04;22.70;99.90
19363;DHT22;9817;50.80926400;5.16316200;2023-06-22T00:59:30;22.70;99.90
19363;DHT22;9817;50.80926400;5.16316200;2023-06-22T01:01:58;22.70;99.90
19363;DHT22;9817;50.80926400;5.16316200;2023-06-22T01:04:34;22.60;99.90
19363;DHT22;9817;50.80926400;5.16316200;2023-06-22T01:07:25;22.60;99.90
19363;DHT22;9817;50.80926400;5.16316200;2023-06-22T01:12:51;22.60;99.90
19363;DHT22;9817;50.80926400;5.16316200;2023-06-22T01:15:21;22.60;99.90
19363;DHT22;9817;50.80926400;5.16316200;2023-06-22T01:17:50;22.50;99.90
19363;DHT22;9817;50.80926400;5.16316200;2023-06-22T01:20:17;22.50;99.90
19363;DHT22;9817;50.80926400;5.16316200;2023-06-22T01:23:09;22.50;99.90
19363;DHT22;9817;50.80926400;5.16316200;2023-06-22T01:25:57;22.40;99.90
19363;DHT22;9817;50.80926400;5.16316200;2023-06-22T01:31:10;22.20;99.90
19363;DHT22;9817;50.80926400;5.16316200;2023-06-22T01:33:41;22.10;99.90
19363;DHT22;9817;50.80926400;5.16316200;2023-06-22T01:36:07;22.00;99.90
19363;DHT22;9817;50.80926400;5.16316200;2023-06-22T01:38:33;21.90;99.90
19363;DHT22;9817;50.80926400;5.16316200;2023-06-22T01:41:00;22.00;99.90
19363;DHT22;9817;50.80926400;5.16316200;2023-06-22T01:43:27;21.90;99.90
19363;DHT22;9817;50.80926400;5.16316200;2023-06-22T01:45:54;21.90;99.90
19363;DHT22;9817;50.80926400;5.16316200;2023-06-22T01:48:20;21.90;99.90
19363;DHT22;9817;50.80926400;5.16316200;2023-06-22T01:50:47;21.90;99.90
19363;DHT22;9817;50.80926400;5.16316200;2023-06-22T01:53:12;21.80;99.90
19363;DHT22;9817;50.80926400;5.16316200;2023-06-22T01:55:38;21.80;99.90
19363;DHT22;9817;50.80926400;5.16316200;2023-06-22T01:58:04;21.80;99.90
19363;DHT22;9817;50.80926400;5.16316200;2023-06-22T02:00:33;21.70;99.90
19363;DHT22;9817;50.80926400;5.16316200;2023-06-22T02:03:03;21.70;99.90
19363;DHT22;9817;50.80926400;5.16316200;2023-06-22T02:05:48;21.70;99.90
19363;DHT22;9817;50.80926400;5.16316200;2023-06-22T02:08:26;21.60;99.90
19363;DHT22;9817;50.80926400;5.16316200;2023-06-22T02:10:54;21.50;99.90
19363;DHT22;9817;50.80926400;5.16316200;2023-06-22T02:13:21;21.50;99.90
19363;DHT22;9817;50.80926400;5.16316200;2023-06-22T02:15:47;21.40;99.90
19363;DHT22;9817;50.80926400;5.16316200;2023-06-22T02:18:13;21.50;99.90
19363;DHT22;9817;50.80926400;5.16316200;2023-06-22T02:20:40;21.50;99.90
19363;DHT22;9817;50.80926400;5.16316200;2023-06-22T02:23:06;21.60;99.90
19363;DHT22;9817;50.80926400;5.16316200;2023-06-22T02:25:33;21.50;99.90
19363;DHT22;9817;50.80926400;5.16316200;2023-06-22T02:27:59;21.50;99.90
19363;DHT22;9817;50.80926400;5.16316200;2023-06-22T02:30:25;21.50;99.90
19363;DHT22;9817;50.80926400;5.16316200;2023-06-22T02:32:50;21.50;99.90
19363;DHT22;9817;50.80926400;5.16316200;2023-06-22T02:35:27;21.50;99.90
19363;DHT22;9817;50.80926400;5.16316200;2023-06-22T02:37:59;21.50;99.90
19363;DHT22;9817;50.80926400;5.16316200;2023-06-22T02:40:26;21.40;99.90
19363;DHT22;9817;50.80926400;5.16316200;2023-06-22T02:42:52;21.30;99.90
19363;DHT22;9817;50.80926400;5.16316200;2023-06-22T02:45:17;21.30;99.90
19363;DHT22;9817;50.80926400;5.16316200;2023-06-22T02:47:43;21.30;99.90
19363;DHT22;9817;50.80926400;5.16316200;2023-06-22T02:50:09;21.30;99.90
19363;DHT22;9817;50.80926400;5.16316200;2023-06-22T02:52:35;21.30;99.90
19363;DHT22;9817;50.80926400;5.16316200;2023-06-22T02:55:01;21.30;99.90
19363;DHT22;9817;50.80926400;5.16316200;2023-06-22T02:57:26;21.40;99.90
19363;DHT22;9817;50.80926400;5.16316200;2023-06-22T02:59:52;21.30;99.90
19363;DHT22;9817;50.80926400;5.16316200;2023-06-22T03:02:17;21.30;99.90
19363;DHT22;9817;50.80926400;5.16316200;2023-06-22T03:04:46;21.30;99.90
19363;DHT22;9817;50.80926400;5.16316200;2023-06-22T03:07:14;21.40;99.90
19363;DHT22;9817;50.80926400;5.16316200;2023-06-22T03:09:40;21.40;99.90
19363;DHT22;9817;50.80926400;5.16316200;2023-06-22T03:12:07;21.30;99.90
19363;DHT22;9817;50.80926400;5.16316200;2023-06-22T03:14:33;21.40;99.90
19363;DHT22;9817;50.80926400;5.16316200;2023-06-22T03:16:59;21.40;99.90
19363;DHT22;9817;50.80926400;5.16316200;2023-06-22T03:19:28;21.30;99.90
19363;DHT22;9817;50.80926400;5.16316200;2023-06-22T03:21:55;21.30;99.90
19363;DHT22;9817;50.80926400;5.16316200;2023-06-22T03:24:21;21.40;99.90
19363;DHT22;9817;50.80926400;5.16316200;2023-06-22T03:26:46;21.20;99.90
19363;DHT22;9817;50.80926400;5.16316200;2023-06-22T03:29:12;21.40;99.90
19363;DHT22;9817;50.80926400;5.16316200;2023-06-22T03:31:38;21.50;99.90
19363;DHT22;9817;50.80926400;5.16316200;2023-06-22T03:34:03;21.60;99.90
19363;DHT22;9817;50.80926400;5.16316200;2023-06-22T03:36:29;21.70;99.90
19363;DHT22;9817;50.80926400;5.16316200;2023-06-22T03:38:55;21.70;99.90
19363;DHT22;9817;50.80926400;5.16316200;2023-06-22T03:41:21;21.80;99.90
19363;DHT22;9817;50.80926400;5.16316200;2023-06-22T03:43:46;21.80;99.90
19363;DHT22;9817;50.80926400;5.16316200;2023-06-22T03:46:13;21.90;99.90
19363;DHT22;9817;50.80926400;5.16316200;2023-06-22T03:48:38;21.90;99.90
19363;DHT22;9817;50.80926400;5.16316200;2023-06-22T03:51:04;22.00;99.90
19363;DHT22;9817;50.80926400;5.16316200;2023-06-22T03:53:30;22.00;99.90
19363;DHT22;9817;50.80926400;5.16316200;2023-06-22T03:55:55;22.00;99.90
19363;DHT22;9817;50.80926400;5.16316200;2023-06-22T03:58:21;22.00;99.90
19363;DHT22;9817;50.80926400;5.16316200;2023-06-22T04:00:51;22.00;99.90
19363;DHT22;9817;50.80926400;5.16316200;2023-06-22T04:03:18;22.00;99.90
19363;DHT22;9817;50.80926400;5.16316200;2023-06-22T04:05:47;21.90;99.90
19363;DHT22;9817;50.80926400;5.16316200;2023-06-22T04:08:14;22.00;99.90
19363;DHT22;9817;50.80926400;5.16316200;2023-06-22T04:10:40;22.00;99.90
19363;DHT22;9817;50.80926400;5.16316200;2023-06-22T04:13:05;22.00;99.90
19363;DHT22;9817;50.80926400;5.16316200;2023-06-22T04:15:31;22.00;99.90
19363;DHT22;9817;50.80926400;5.16316200;2023-06-22T04:17:57;22.00;99.90
19363;DHT22;9817;50.80926400;5.16316200;2023-06-22T04:20:23;22.00;99.90
19363;DHT22;9817;50.80926400;5.16316200;2023-06-22T04:22:54;21.90;99.90
19363;DHT22;9817;50.80926400;5.16316200;2023-06-22T04:25:19;21.80;99.90
19363;DHT22;9817;50.80926400;5.16316200;2023-06-22T04:27:45;21.80;99.90
19363;DHT22;9817;50.80926400;5.16316200;2023-06-22T04:30:11;21.80;99.90
19363;DHT22;9817;50.80926400;5.16316200;2023-06-22T04:32:41;21.80;99.90
19363;DHT22;9817;50.80926400;5.16316200;2023-06-22T04:35:07;21.90;99.90
19363;DHT22;9817;50.80926400;5.16316200;2023-06-22T04:37:33;21.90;99.90
19363;DHT22;9817;50.80926400;5.16316200;2023-06-22T04:39:59;21.80;99.90
19363;DHT22;9817;50.80926400;5.16316200;2023-06-22T04:42:26;21.90;99.90
19363;DHT22;9817;50.80926400;5.16316200;2023-06-22T04:44:52;21.80;99.90
19363;DHT22;9817;50.80926400;5.16316200;2023-06-22T04:47:18;21.80;99.90
19363;DHT22;9817;50.80926400;5.16316200;2023-06-22T04:49:43;21.90;99.90
19363;DHT22;9817;50.80926400;5.16316200;2023-06-22T04:52:11;21.80;99.90
19363;DHT22;9817;50.80926400;5.16316200;2023-06-22T04:54:38;21.80;99.90
19363;DHT22;9817;50.80926400;5.16316200;2023-06-22T04:57:07;21.80;99.90
19363;DHT22;9817;50.80926400;5.16316200;2023-06-22T04:59:37;21.80;99.90
19363;DHT22;9817;50.80926400;5.16316200;2023-06-22T05:02:04;21.70;99.90
19363;DHT22;9817;50.80926400;5.16316200;2023-06-22T05:04:31;21.70;99.90
19363;DHT22;9817;50.80926400;5.16316200;2023-06-22T05:06:58;21.70;99.90
19363;DHT22;9817;50.80926400;5.16316200;2023-06-22T05:09:24;21.80;99.90
19363;DHT22;9817;50.80926400;5.16316200;2023-06-22T05:11:50;21.80;99.90
19363;DHT22;9817;50.80926400;5.16316200;2023-06-22T05:14:16;21.80;99.90
19363;DHT22;9817;50.80926400;5.16316200;2023-06-22T05:16:42;21.90;99.90
19363;DHT22;9817;50.80926400;5.16316200;2023-06-22T05:19:08;21.90;99.90
19363;DHT22;9817;50.80926400;5.16316200;2023-06-22T05:21:34;21.90;99.90
19363;DHT22;9817;50.80926400;5.16316200;2023-06-22T05:24:00;21.90;99.90
19363;DHT22;9817;50.80926400;5.16316200;2023-06-22T05:26:32;21.80;99.90
19363;DHT22;9817;50.80926400;5.16316200;2023-06-22T05:29:01;21.90;99.90
19363;DHT22;9817;50.80926400;5.16316200;2023-06-22T05:31:27;21.90;99.90
19363;DHT22;9817;50.80926400;5.16316200;2023-06-22T05:33:54;21.90;99.90
19363;DHT22;9817;50.80926400;5.16316200;2023-06-22T05:36:20;21.90;99.90
19363;DHT22;9817;50.80926400;5.16316200;2023-06-22T05:38:47;22.00;99.90
19363;DHT22;9817;50.80926400;5.16316200;2023-06-22T05:41:13;22.00;99.90
19363;DHT22;9817;50.80926400;5.16316200;2023-06-22T05:43:39;22.00;99.90
19363;DHT22;9817;50.80926400;5.16316200;2023-06-22T05:46:05;22.00;99.90
19363;DHT22;9817;50.80926400;5.16316200;2023-06-22T05:48:31;22.00;99.90
19363;DHT22;9817;50.80926400;5.16316200;2023-06-22T05:50:57;21.90;99.90
19363;DHT22;9817;50.80926400;5.16316200;2023-06-22T05:53:22;22.00;99.90
19363;DHT22;9817;50.80926400;5.16316200;2023-06-22T05:55:48;22.00;99.90
19363;DHT22;9817;50.80926400;5.16316200;2023-06-22T05:58:14;21.90;99.90
19363;DHT22;9817;50.80926400;5.16316200;2023-06-22T06:00:40;21.90;99.90
19363;DHT22;9817;50.80926400;5.16316200;2023-06-22T06:03:10;22.00;99.90
19363;DHT22;9817;50.80926400;5.16316200;2023-06-22T06:05:36;22.00;99.90
19363;DHT22;9817;50.80926400;5.16316200;2023-06-22T06:08:04;22.10;99.90
19363;DHT22;9817;50.80926400;5.16316200;2023-06-22T06:10:31;22.20;99.90
19363;DHT22;9817;50.80926400;5.16316200;2023-06-22T06:12:57;22.30;99.90
19363;DHT22;9817;50.80926400;5.16316200;2023-06-22T06:15:23;22.50;99.90
19363;DHT22;9817;50.80926400;5.16316200;2023-06-22T06:17:50;22.60;99.90
19363;DHT22;9817;50.80926400;5.16316200;2023-06-22T06:20:19;22.80;99.90
19363;DHT22;9817;50.80926400;5.16316200;2023-06-22T06:22:45;22.90;99.90
19363;DHT22;9817;50.80926400;5.16316200;2023-06-22T06:25:10;22.90;99.90
19363;DHT22;9817;50.80926400;5.16316200;2023-06-22T06:27:42;22.90;99.90
19363;DHT22;9817;50.80926400;5.16316200;2023-06-22T06:30:09;23.00;99.90
19363;DHT22;9817;50.80926400;5.16316200;2023-06-22T06:32:35;23.10;99.90
19363;DHT22;9817;50.80926400;5.16316200;2023-06-22T06:35:00;23.10;99.90
19363;DHT22;9817;50.80926400;5.16316200;2023-06-22T06:37:26;23.10;99.90
19363;DHT22;9817;50.80926400;5.16316200;2023-06-22T06:39:53;23.20;99.90
19363;DHT22;9817;50.80926400;5.16316200;2023-06-22T06:42:18;23.10;99.90
19363;DHT22;9817;50.80926400;5.16316200;2023-06-22T06:44:45;23.20;99.90
19363;DHT22;9817;50.80926400;5.16316200;2023-06-22T06:47:10;23.30;99.90
19363;DHT22;9817;50.80926400;5.16316200;2023-06-22T06:49:36;23.50;99.90
19363;DHT22;9817;50.80926400;5.16316200;2023-06-22T06:52:02;23.60;99.90
19363;DHT22;9817;50.80926400;5.16316200;2023-06-22T06:54:27;23.60;99.90
19363;DHT22;9817;50.80926400;5.16316200;2023-06-22T06:56:53;23.70;99.90
19363;DHT22;9817;50.80926400;5.16316200;2023-06-22T06:59:19;23.70;99.90
19363;DHT22;9817;50.80926400;5.16316200;2023-06-22T07:01:44;23.60;99.90
19363;DHT22;9817;50.80926400;5.16316200;2023-06-22T07:04:10;23.70;99.90
19363;DHT22;9817;50.80926400;5.16316200;2023-06-22T07:06:36;23.80;99.90
19363;DHT22;9817;50.80926400;5.16316200;2023-06-22T07:09:03;23.70;99.90
19363;DHT22;9817;50.80926400;5.16316200;2023-06-22T07:11:28;23.70;99.90
19363;DHT22;9817;50.80926400;5.16316200;2023-06-22T07:13:54;23.80;99.90
19363;DHT22;9817;50.80926400;5.16316200;2023-06-22T07:16:20;23.70;99.90
19363;DHT22;9817;50.80926400;5.16316200;2023-06-22T07:18:45;23.60;99.90
19363;DHT22;9817;50.80926400;5.16316200;2023-06-22T07:21:11;23.50;99.90
19363;DHT22;9817;50.80926400;5.16316200;2023-06-22T07:23:37;23.40;99.90
19363;DHT22;9817;50.80926400;5.16316200;2023-06-22T07:26:02;23.40;99.90
19363;DHT22;9817;50.80926400;5.16316200;2023-06-22T07:28:28;23.30;99.90
19363;DHT22;9817;50.80926400;5.16316200;2023-06-22T07:30:57;23.30;99.90
19363;DHT22;9817;50.80926400;5.16316200;2023-06-22T07:33:22;23.10;99.90
19363;DHT22;9817;50.80926400;5.16316200;2023-06-22T07:35:48;23.10;99.90
19363;DHT22;9817;50.80926400;5.16316200;2023-06-22T07:38:16;23.00;99.90
19363;DHT22;9817;50.80926400;5.16316200;2023-06-22T07:40:42;23.00;99.90
19363;DHT22;9817;50.80926400;5.16316200;2023-06-22T07:43:07;23.10;99.90
19363;DHT22;9817;50.80926400;5.16316200;2023-06-22T07:45:33;23.40;99.90
19363;DHT22;9817;50.80926400;5.16316200;2023-06-22T07:48:00;23.80;99.90
19363;DHT22;9817;50.80926400;5.16316200;2023-06-22T07:50:26;23.80;99.90
19363;DHT22;9817;50.80926400;5.16316200;2023-06-22T07:52:52;23.80;99.90
19363;DHT22;9817;50.80926400;5.16316200;2023-06-22T07:55:18;24.00;99.90
19363;DHT22;9817;50.80926400;5.16316200;2023-06-22T07:57:44;24.20;99.90
19363;DHT22;9817;50.80926400;5.16316200;2023-06-22T08:00:10;24.60;99.90
19363;DHT22;9817;50.80926400;5.16316200;2023-06-22T08:02:41;24.70;99.90
19363;DHT22;9817;50.80926400;5.16316200;2023-06-22T08:05:09;24.80;99.90
19363;DHT22;9817;50.80926400;5.16316200;2023-06-22T08:07:35;25.20;99.90
19363;DHT22;9817;50.80926400;5.16316200;2023-06-22T08:10:03;25.40;99.90
19363;DHT22;9817;50.80926400;5.16316200;2023-06-22T08:12:29;25.90;99.90
19363;DHT22;9817;50.80926400;5.16316200;2023-06-22T08:14:55;26.10;99.90
19363;DHT22;9817;50.80926400;5.16316200;2023-06-22T08:17:22;26.20;99.90
19363;DHT22;9817;50.80926400;5.16316200;2023-06-22T08:19:48;26.50;99.90
19363;DHT22;9817;50.80926400;5.16316200;2023-06-22T08:22:14;26.90;99.90
19363;DHT22;9817;50.80926400;5.16316200;2023-06-22T08:24:39;27.30;99.90
19363;DHT22;9817;50.80926400;5.16316200;2023-06-22T08:27:07;27.30;99.90
19363;DHT22;9817;50.80926400;5.16316200;2023-06-22T08:29:38;27.40;99.90
19363;DHT22;9817;50.80926400;5.16316200;2023-06-22T08:32:04;27.30;99.90
19363;DHT22;9817;50.80926400;5.16316200;2023-06-22T08:34:30;26.90;99.90
19363;DHT22;9817;50.80926400;5.16316200;2023-06-22T08:36:57;26.60;99.90
19363;DHT22;9817;50.80926400;5.16316200;2023-06-22T08:39:22;26.60;99.90
19363;DHT22;9817;50.80926400;5.16316200;2023-06-22T08:41:48;26.70;99.90
19363;DHT22;9817;50.80926400;5.16316200;2023-06-22T08:44:15;26.60;99.90
19363;DHT22;9817;50.80926400;5.16316200;2023-06-22T08:46:40;26.60;99.90
19363;DHT22;9817;50.80926400;5.16316200;2023-06-22T08:49:07;26.60;99.90
19363;DHT22;9817;50.80926400;5.16316200;2023-06-22T08:51:33;26.50;99.90
19363;DHT22;9817;50.80926400;5.16316200;2023-06-22T08:53:59;26.50;99.90
19363;DHT22;9817;50.80926400;5.16316200;2023-06-22T08:56:24;26.40;99.90
19363;DHT22;9817;50.80926400;5.16316200;2023-06-22T08:58:50;26.40;99.90
19363;DHT22;9817;50.80926400;5.16316200;2023-06-22T09:01:16;26.40;99.90
19363;DHT22;9817;50.80926400;5.16316200;2023-06-22T09:03:42;25.70;99.90
19363;DHT22;9817;50.80926400;5.16316200;2023-06-22T09:06:07;25.70;99.90
19363;DHT22;9817;50.80926400;5.16316200;2023-06-22T09:08:35;25.60;99.90
19363;DHT22;9817;50.80926400;5.16316200;2023-06-22T09:11:01;25.70;99.90
19363;DHT22;9817;50.80926400;5.16316200;2023-06-22T09:13:29;25.60;99.90
19363;DHT22;9817;50.80926400;5.16316200;2023-06-22T09:15:55;25.60;99.90
19363;DHT22;9817;50.80926400;5.16316200;2023-06-22T09:18:21;25.60;99.90
19363;DHT22;9817;50.80926400;5.16316200;2023-06-22T09:20:46;25.60;99.90
19363;DHT22;9817;50.80926400;5.16316200;2023-06-22T09:23:12;25.70;99.90
19363;DHT22;9817;50.80926400;5.16316200;2023-06-22T09:25:38;25.60;99.90
19363;DHT22;9817;50.80926400;5.16316200;2023-06-22T09:28:03;25.40;99.90
19363;DHT22;9817;50.80926400;5.16316200;2023-06-22T09:30:29;25.20;99.90
19363;DHT22;9817;50.80926400;5.16316200;2023-06-22T09:32:55;25.30;99.90
19363;DHT22;9817;50.80926400;5.16316200;2023-06-22T09:35:20;25.30;99.90
19363;DHT22;9817;50.80926400;5.16316200;2023-06-22T09:37:46;25.40;99.90
19363;DHT22;9817;50.80926400;5.16316200;2023-06-22T09:40:12;25.50;99.90
19363;DHT22;9817;50.80926400;5.16316200;2023-06-22T09:42:38;25.60;99.90
19363;DHT22;9817;50.80926400;5.16316200;2023-06-22T09:45:05;25.70;99.90
19363;DHT22;9817;50.80926400;5.16316200;2023-06-22T09:47:30;25.70;99.90
19363;DHT22;9817;50.80926400;5.16316200;2023-06-22T09:49:56;25.50;99.90
19363;DHT22;9817;50.80926400;5.16316200;2023-06-22T09:52:24;25.50;99.90
19363;DHT22;9817;50.80926400;5.16316200;2023-06-22T09:54:50;25.40;99.90
19363;DHT22;9817;50.80926400;5.16316200;2023-06-22T09:57:15;25.20;99.90
19363;DHT22;9817;50.80926400;5.16316200;2023-06-22T09:59:41;25.10;99.90
19363;DHT22;9817;50.80926400;5.16316200;2023-06-22T10:02:07;25.10;99.90
19363;DHT22;9817;50.80926400;5.16316200;2023-06-22T10:04:34;25.00;99.90
19363;DHT22;9817;50.80926400;5.16316200;2023-06-22T10:07:00;25.10;99.90
19363;DHT22;9817;50.80926400;5.16316200;2023-06-22T10:09:26;25.10;99.90
19363;DHT22;9817;50.80926400;5.16316200;2023-06-22T10:11:52;24.90;99.90
19363;DHT22;9817;50.80926400;5.16316200;2023-06-22T10:14:17;24.90;99.90
19363;DHT22;9817;50.80926400;5.16316200;2023-06-22T10:16:44;24.70;99.90
19363;DHT22;9817;50.80926400;5.16316200;2023-06-22T10:19:10;24.50;99.90
19363;DHT22;9817;50.80926400;5.16316200;2023-06-22T10:21:35;24.20;99.90
19363;DHT22;9817;50.80926400;5.16316200;2023-06-22T10:24:01;23.90;99.90
19363;DHT22;9817;50.80926400;5.16316200;2023-06-22T10:26:35;23.60;99.90
19363;DHT22;9817;50.80926400;5.16316200;2023-06-22T10:29:02;23.40;99.90
19363;DHT22;9817;50.80926400;5.16316200;2023-06-22T10:31:27;23.10;99.90
19363;DHT22;9817;50.80926400;5.16316200;2023-06-22T10:33:54;22.90;99.90
19363;DHT22;9817;50.80926400;5.16316200;2023-06-22T10:36:20;22.60;99.90
19363;DHT22;9817;50.80926400;5.16316200;2023-06-22T10:38:46;22.60;99.90
19363;DHT22;9817;50.80926400;5.16316200;2023-06-22T10:41:12;22.60;99.90
19363;DHT22;9817;50.80926400;5.16316200;2023-06-22T10:43:38;22.40;99.90
19363;DHT22;9817;50.80926400;5.16316200;2023-06-22T10:46:04;22.30;99.90
19363;DHT22;9817;50.80926400;5.16316200;2023-06-22T10:48:29;22.40;99.90
19363;DHT22;9817;50.80926400;5.16316200;2023-06-22T10:50:55;22.50;99.90
19363;DHT22;9817;50.80926400;5.16316200;2023-06-22T10:53:21;22.60;99.90
19363;DHT22;9817;50.80926400;5.16316200;2023-06-22T10:55:47;22.50;99.90
19363;DHT22;9817;50.80926400;5.16316200;2023-06-22T10:58:13;22.40;99.90
19363;DHT22;9817;50.80926400;5.16316200;2023-06-22T11:00:38;22.60;99.90
19363;DHT22;9817;50.80926400;5.16316200;2023-06-22T11:03:04;22.60;99.90
19363;DHT22;9817;50.80926400;5.16316200;2023-06-22T11:05:29;22.50;99.90
19363;DHT22;9817;50.80926400;5.16316200;2023-06-22T11:07:55;22.50;99.90
19363;DHT22;9817;50.80926400;5.16316200;2023-06-22T11:10:21;22.50;99.90
19363;DHT22;9817;50.80926400;5.16316200;2023-06-22T11:12:46;22.70;99.90
19363;DHT22;9817;50.80926400;5.16316200;2023-06-22T11:15:12;22.80;99.90
19363;DHT22;9817;50.80926400;5.16316200;2023-06-22T11:17:37;23.10;99.90
19363;DHT22;9817;50.80926400;5.16316200;2023-06-22T11:20:03;23.20;99.90
19363;DHT22;9817;50.80926400;5.16316200;2023-06-22T11:22:42;23.60;99.90
19363;DHT22;9817;50.80926400;5.16316200;2023-06-22T11:25:08;23.70;99.90
19363;DHT22;9817;50.80926400;5.16316200;2023-06-22T11:27:34;23.80;99.90
19363;DHT22;9817;50.80926400;5.16316200;2023-06-22T11:30:00;23.80;99.90
19363;DHT22;9817;50.80926400;5.16316200;2023-06-22T11:32:25;24.00;99.90
19363;DHT22;9817;50.80926400;5.16316200;2023-06-22T11:34:51;23.90;99.90
19363;DHT22;9817;50.80926400;5.16316200;2023-06-22T11:37:16;23.90;99.90
19363;DHT22;9817;50.80926400;5.16316200;2023-06-22T11:39:42;23.70;99.90
19363;DHT22;9817;50.80926400;5.16316200;2023-06-22T11:42:09;23.40;99.90
19363;DHT22;9817;50.80926400;5.16316200;2023-06-22T11:44:34;23.20;99.90
19363;DHT22;9817;50.80926400;5.16316200;2023-06-22T11:47:00;23.10;99.90
19363;DHT22;9817;50.80926400;5.16316200;2023-06-22T11:49:27;22.80;99.90
19363;DHT22;9817;50.80926400;5.16316200;2023-06-22T11:51:53;22.70;99.90
19363;DHT22;9817;50.80926400;5.16316200;2023-06-22T11:54:18;22.70;99.90
19363;DHT22;9817;50.80926400;5.16316200;2023-06-22T11:56:44;22.60;99.90
19363;DHT22;9817;50.80926400;5.16316200;2023-06-22T11:59:10;22.50;99.90
19363;DHT22;9817;50.80926400;5.16316200;2023-06-22T12:01:35;22.60;99.90
19363;DHT22;9817;50.80926400;5.16316200;2023-06-22T12:04:01;22.60;99.90
19363;DHT22;9817;50.80926400;5.16316200;2023-06-22T12:06:27;22.60;99.90
19363;DHT22;9817;50.80926400;5.16316200;2023-06-22T12:08:52;22.60;99.90
19363;DHT22;9817;50.80926400;5.16316200;2023-06-22T12:11:18;22.50;99.90
19363;DHT22;9817;50.80926400;5.16316200;2023-06-22T12:13:43;22.30;99.90
19363;DHT22;9817;50.80926400;5.16316200;2023-06-22T12:16:09;22.20;99.90
19363;DHT22;9817;50.80926400;5.16316200;2023-06-22T12:18:35;22.20;99.90
19363;DHT22;9817;50.80926400;5.16316200;2023-06-22T12:21:00;22.00;99.90
19363;DHT22;9817;50.80926400;5.16316200;2023-06-22T12:23:26;21.90;99.90
19363;DHT22;9817;50.80926400;5.16316200;2023-06-22T12:25:52;21.90;99.90
19363;DHT22;9817;50.80926400;5.16316200;2023-06-22T12:28:17;21.60;99.90
19363;DHT22;9817;50.80926400;5.16316200;2023-06-22T12:30:43;21.50;99.90
19363;DHT22;9817;50.80926400;5.16316200;2023-06-22T12:33:09;21.50;99.90
19363;DHT22;9817;50.80926400;5.16316200;2023-06-22T12:35:35;21.20;99.90
19363;DHT22;9817;50.80926400;5.16316200;2023-06-22T12:38:00;21.20;99.90
19363;DHT22;9817;50.80926400;5.16316200;2023-06-22T12:40:26;21.20;99.90
19363;DHT22;9817;50.80926400;5.16316200;2023-06-22T12:42:51;21.10;99.90
19363;DHT22;9817;50.80926400;5.16316200;2023-06-22T12:45:17;21.10;99.90
19363;DHT22;9817;50.80926400;5.16316200;2023-06-22T12:47:44;21.00;99.90
19363;DHT22;9817;50.80926400;5.16316200;2023-06-22T12:50:09;21.00;99.90
19363;DHT22;9817;50.80926400;5.16316200;2023-06-22T12:52:36;20.90;99.90
19363;DHT22;9817;50.80926400;5.16316200;2023-06-22T12:55:04;20.90;99.90
19363;DHT22;9817;50.80926400;5.16316200;2023-06-22T12:57:30;20.80;99.90
19363;DHT22;9817;50.80926400;5.16316200;2023-06-22T12:59:56;20.80;99.90
19363;DHT22;9817;50.80926400;5.16316200;2023-06-22T13:02:23;20.70;99.90
19363;DHT22;9817;50.80926400;5.16316200;2023-06-22T13:04:49;20.60;99.90
19363;DHT22;9817;50.80926400;5.16316200;2023-06-22T13:07:15;20.60;99.90
19363;DHT22;9817;50.80926400;5.16316200;2023-06-22T13:09:40;20.50;99.90
19363;DHT22;9817;50.80926400;5.16316200;2023-06-22T13:12:06;20.40;99.90
19363;DHT22;9817;50.80926400;5.16316200;2023-06-22T13:14:32;20.30;99.90
19363;DHT22;9817;50.80926400;5.16316200;2023-06-22T13:16:58;20.20;99.90
19363;DHT22;9817;50.80926400;5.16316200;2023-06-22T13:19:23;20.30;99.90
19363;DHT22;9817;50.80926400;5.16316200;2023-06-22T13:21:49;20.20;99.90
19363;DHT22;9817;50.80926400;5.16316200;2023-06-22T13:24:15;20.10;99.90
19363;DHT22;9817;50.80926400;5.16316200;2023-06-22T13:26:41;20.20;99.90
19363;DHT22;9817;50.80926400;5.16316200;2023-06-22T13:29:07;20.20;99.90
19363;DHT22;9817;50.80926400;5.16316200;2023-06-22T13:31:33;20.20;99.90
19363;DHT22;9817;50.80926400;5.16316200;2023-06-22T13:33:58;20.20;99.90
19363;DHT22;9817;50.80926400;5.16316200;2023-06-22T13:36:24;20.10;99.90